sensor_id;sensor_type;location;lat;lon;timestamp;P1;durP1;ratioP1;P2;durP2;ratioP2
14675;SDS011;7426;52.524;13.460;2022-07-01T00:00:14;2172.5;;;763.7125;;
14675;SDS011;7426;52.524;13.460;2022-07-01T00:02:14;2099.4625;;;773.6;;
14675;SDS011;7426;52.524;13.460;2022-07-01T00:04:14;2138.15;;;797.0875000000001;;
14675;SDS011;7426;52.524;13.460;2022-07-01T00:06:14;2146.425;;;797.5625;;
14675;SDS011;7426;52.524;13.460;2022-07-01T00:08:14;2163.175;;;800.5749999999999;;
14675;SDS011;7426;52.524;13.460;2022-07-01T00:10:15;2200.0;;;847.4375;;
14675;SDS011;7426;52.524;13.460;2022-07-01T00:12:14;2200.0;;;823.45;;
14675;SDS011;7426;52.524;13.460;2022-07-01T00:14:14;2169.7;;;844.3625;;
14675;SDS011;7426;52.524;13.460;2022-07-01T00:16:14;2200.0;;;837.275;;
14675;SDS011;7426;52.524;13.460;2022-07-01T00:18:14;2200.0;;;841.3;;
14675;SDS011;7426;52.524;13.460;2022-07-01T00:20:15;2135.5625;;;881.9;;
14675;SDS011;7426;52.524;13.460;2022-07-01T00:22:15;2177.1625;;;916.05;;
14675;SDS011;7426;52.524;13.460;2022-07-01T00:24:14;2178.6;;;890.4124999999999;;
14675;SDS011;7426;52.524;13.460;2022-07-01T00:26:14;2200.0;;;882.4875;;
14675;SDS011;7426;52.524;13.460;2022-07-01T00:28:14;2195.2;;;943.0125;;
14675;SDS011;7426;52.524;13.460;2022-07-01T00:30:15;2200.0;;;928.8875;;
14675;SDS011;7426;52.524;13.460;2022-07-01T00:32:14;2200.0;;;942.45;;
14675;SDS011;7426;52.524;13.460;2022-07-01T00:34:15;2200.0;;;942.4749999999999;;
14675;SDS011;7426;52.524;13.460;2022-07-01T00:36:14;2200.0;;;947.875;;
14675;SDS011;7426;52.524;13.460;2022-07-01T00:38:14;2200.0;;;958.7249999999999;;
14675;SDS011;7426;52.524;13.460;2022-07-01T00:40:14;2132.1125;;;947.925;;
14675;SDS011;7426;52.524;13.460;2022-07-01T00:42:15;2152.225;;;940.7375;;
14675;SDS011;7426;52.524;13.460;2022-07-01T00:44:16;2200.0;;;932.325;;
14675;SDS011;7426;52.524;13.460;2022-07-01T00:46:15;2200.0;;;943.9000000000001;;
14675;SDS011;7426;52.524;13.460;2022-07-01T00:48:14;2149.7125;;;943.65;;
14675;SDS011;7426;52.524;13.460;2022-07-01T00:50:15;2197.25;;;934.4875;;
14675;SDS011;7426;52.524;13.460;2022-07-01T00:52:14;2192.05;;;941.3;;
14675;SDS011;7426;52.524;13.460;2022-07-01T00:54:14;2138.4125;;;947.75;;
14675;SDS011;7426;52.524;13.460;2022-07-01T00:56:14;2153.1;;;926.3375;;
14675;SDS011;7426;52.524;13.460;2022-07-01T00:58:14;2174.6125;;;950.6375;;
14675;SDS011;7426;52.524;13.460;2022-07-01T01:00:15;2158.6625;;;934.175;;
14675;SDS011;7426;52.524;13.460;2022-07-01T01:02:14;2200.0;;;954.525;;
14675;SDS011;7426;52.524;13.460;2022-07-01T01:04:14;2152.9875;;;935.7750000000001;;
14675;SDS011;7426;52.524;13.460;2022-07-01T01:06:15;2142.7375;;;931.875;;
14675;SDS011;7426;52.524;13.460;2022-07-01T01:08:14;2189.0625;;;930.5875;;
14675;SDS011;7426;52.524;13.460;2022-07-01T01:10:14;2157.7875;;;931.6875;;
14675;SDS011;7426;52.524;13.460;2022-07-01T01:12:14;2138.7375;;;932.1375;;
14675;SDS011;7426;52.524;13.460;2022-07-01T01:14:14;2125.95;;;935.175;;
14675;SDS011;7426;52.524;13.460;2022-07-01T01:16:16;2105.225;;;928.2874999999999;;
14675;SDS011;7426;52.524;13.460;2022-07-01T01:18:14;2122.625;;;895.15;;
14675;SDS011;7426;52.524;13.460;2022-07-01T01:20:15;2122.575;;;938.3625;;
14675;SDS011;7426;52.524;13.460;2022-07-01T01:22:15;2088.8125;;;870.3625;;
14675;SDS011;7426;52.524;13.460;2022-07-01T01:24:14;2081.5625;;;839.0999999999999;;
14675;SDS011;7426;52.524;13.460;2022-07-01T01:26:15;2092.5875;;;904.9124999999999;;
14675;SDS011;7426;52.524;13.460;2022-07-01T01:28:14;2089.3625;;;913.0125;;
14675;SDS011;7426;52.524;13.460;2022-07-01T01:30:14;2004.4;;;812.3499999999999;;
14675;SDS011;7426;52.524;13.460;2022-07-01T01:32:14;2048.7125;;;867.8125;;
14675;SDS011;7426;52.524;13.460;2022-07-01T01:34:14;1986.0375;;;750.6625;;
14675;SDS011;7426;52.524;13.460;2022-07-01T01:36:14;1884.1875;;;748.375;;
14675;SDS011;7426;52.524;13.460;2022-07-01T01:38:14;1832.725;;;704.5625;;
14675;SDS011;7426;52.524;13.460;2022-07-01T01:40:15;1800.2125;;;617.2125;;
14675;SDS011;7426;52.524;13.460;2022-07-01T01:42:14;1895.0875;;;741.325;;
14675;SDS011;7426;52.524;13.460;2022-07-01T01:44:14;1916.75;;;741.8;;
14675;SDS011;7426;52.524;13.460;2022-07-01T01:46:14;1856.575;;;726.3;;
14675;SDS011;7426;52.524;13.460;2022-07-01T01:48:14;1933.7;;;706.8875;;
14675;SDS011;7426;52.524;13.460;2022-07-01T01:50:14;1889.275;;;734.775;;
14675;SDS011;7426;52.524;13.460;2022-07-01T01:52:14;1939.75;;;723.5;;
14675;SDS011;7426;52.524;13.460;2022-07-01T01:54:14;1874.475;;;708.4625;;
14675;SDS011;7426;52.524;13.460;2022-07-01T01:56:14;1890.9125;;;730.875;;
14675;SDS011;7426;52.524;13.460;2022-07-01T01:58:15;2013.9625;;;741.5;;
14675;SDS011;7426;52.524;13.460;2022-07-01T02:00:14;2029.375;;;753.9875;;
14675;SDS011;7426;52.524;13.460;2022-07-01T02:02:15;2054.0;;;832.6125;;
14675;SDS011;7426;52.524;13.460;2022-07-01T02:04:14;2029.2125;;;819.7;;
14675;SDS011;7426;52.524;13.460;2022-07-01T02:06:14;2007.6;;;838.2375;;
14675;SDS011;7426;52.524;13.460;2022-07-01T02:08:14;1981.5625;;;791.2874999999999;;
14675;SDS011;7426;52.524;13.460;2022-07-01T02:10:14;1931.925;;;745.775;;
14675;SDS011;7426;52.524;13.460;2022-07-01T02:12:14;2028.35;;;765.1375;;
14675;SDS011;7426;52.524;13.460;2022-07-01T02:14:14;2044.375;;;792.0625;;
14675;SDS011;7426;52.524;13.460;2022-07-01T02:16:14;2017.2125;;;761.2;;
14675;SDS011;7426;52.524;13.460;2022-07-01T02:18:15;2039.675;;;752.1125;;
14675;SDS011;7426;52.524;13.460;2022-07-01T02:20:14;1768.625;;;756.25;;
14675;SDS011;7426;52.524;13.460;2022-07-01T02:22:14;1815.275;;;725.825;;
14675;SDS011;7426;52.524;13.460;2022-07-01T02:24:16;1583.7125;;;671.6125000000001;;
14675;SDS011;7426;52.524;13.460;2022-07-01T02:26:14;1254.2375;;;574.0625;;
14675;SDS011;7426;52.524;13.460;2022-07-01T02:28:15;1173.125;;;543.6875;;
14675;SDS011;7426;52.524;13.460;2022-07-01T02:30:14;1285.0;;;587.1875;;
14675;SDS011;7426;52.524;13.460;2022-07-01T02:32:14;1555.075;;;599.3874999999999;;
14675;SDS011;7426;52.524;13.460;2022-07-01T02:34:14;1018.1875;;;547.3499999999999;;
14675;SDS011;7426;52.524;13.460;2022-07-01T02:36:14;1341.9125;;;475.73749999999995;;
14675;SDS011;7426;52.524;13.460;2022-07-01T02:38:14;1070.525;;;331.125;;
14675;SDS011;7426;52.524;13.460;2022-07-01T02:40:14;1073.075;;;323.6875;;
14675;SDS011;7426;52.524;13.460;2022-07-01T02:42:35;1479.425;;;378.83750000000003;;
14675;SDS011;7426;52.524;13.460;2022-07-01T02:44:14;1234.0625;;;406.46250000000003;;
14675;SDS011;7426;52.524;13.460;2022-07-01T02:46:14;781.35;;;339.5;;
14675;SDS011;7426;52.524;13.460;2022-07-01T02:48:14;378.0375;;;298.5375;;
14675;SDS011;7426;52.524;13.460;2022-07-01T02:50:15;243.375;;;222.3;;
14675;SDS011;7426;52.524;13.460;2022-07-01T02:52:15;106.53750000000001;;;97.675;;
14675;SDS011;7426;52.524;13.460;2022-07-01T02:54:14;103.47500000000001;;;95.175;;
14675;SDS011;7426;52.524;13.460;2022-07-01T02:56:14;35.0;;;31.275;;
14675;SDS011;7426;52.524;13.460;2022-07-01T02:58:14;177.0625;;;158.975;;
14675;SDS011;7426;52.524;13.460;2022-07-01T03:00:14;107.3125;;;98.6625;;
14675;SDS011;7426;52.524;13.460;2022-07-01T03:02:14;41.25;;;37.3375;;
14675;SDS011;7426;52.524;13.460;2022-07-01T03:04:15;42.6625;;;39.02499999999999;;
14675;SDS011;7426;52.524;13.460;2022-07-01T03:06:14;29.6125;;;24.837500000000002;;
14675;SDS011;7426;52.524;13.460;2022-07-01T03:08:14;28.225;;;25.2875;;
14675;SDS011;7426;52.524;13.460;2022-07-01T03:10:14;33.15;;;18.6875;;
14675;SDS011;7426;52.524;13.460;2022-07-01T03:12:34;23.4125;;;16.5625;;
14675;SDS011;7426;52.524;13.460;2022-07-01T03:14:14;25.3875;;;14.2875;;
14675;SDS011;7426;52.524;13.460;2022-07-01T03:16:15;27.3125;;;15.7625;;
14675;SDS011;7426;52.524;13.460;2022-07-01T03:18:14;24.575000000000003;;;17.1375;;
14675;SDS011;7426;52.524;13.460;2022-07-01T03:20:14;20.6875;;;15.0125;;
14675;SDS011;7426;52.524;13.460;2022-07-01T03:22:14;23.2375;;;17.075000000000003;;
14675;SDS011;7426;52.524;13.460;2022-07-01T03:24:14;21.025000000000002;;;16.387500000000003;;
14675;SDS011;7426;52.524;13.460;2022-07-01T03:26:14;23.6875;;;16.5;;
14675;SDS011;7426;52.524;13.460;2022-07-01T03:28:15;22.6375;;;16.1875;;
14675;SDS011;7426;52.524;13.460;2022-07-01T03:30:15;19.725;;;15.100000000000001;;
14675;SDS011;7426;52.524;13.460;2022-07-01T03:32:14;19.05;;;15.012500000000001;;
14675;SDS011;7426;52.524;13.460;2022-07-01T03:34:14;21.7;;;15.1;;
14675;SDS011;7426;52.524;13.460;2022-07-01T03:36:14;21.537499999999998;;;16.5625;;
14675;SDS011;7426;52.524;13.460;2022-07-01T03:38:15;20.65;;;16.15;;
14675;SDS011;7426;52.524;13.460;2022-07-01T03:40:14;21.6625;;;17.25;;
14675;SDS011;7426;52.524;13.460;2022-07-01T03:42:14;19.9375;;;14.874999999999998;;
14675;SDS011;7426;52.524;13.460;2022-07-01T03:44:14;25.5875;;;18.625;;
14675;SDS011;7426;52.524;13.460;2022-07-01T03:46:14;20.7875;;;15.624999999999998;;
14675;SDS011;7426;52.524;13.460;2022-07-01T03:48:16;21.5625;;;17.112499999999997;;
14675;SDS011;7426;52.524;13.460;2022-07-01T03:50:14;20.3;;;16.45;;
14675;SDS011;7426;52.524;13.460;2022-07-01T03:52:14;25.1875;;;15.774999999999999;;
14675;SDS011;7426;52.524;13.460;2022-07-01T03:54:42;20.5125;;;15.925;;
14675;SDS011;7426;52.524;13.460;2022-07-01T03:56:14;26.7625;;;17.6875;;
14675;SDS011;7426;52.524;13.460;2022-07-01T03:58:14;29.35;;;17.425;;
14675;SDS011;7426;52.524;13.460;2022-07-01T04:00:14;18.85;;;14.9875;;
14675;SDS011;7426;52.524;13.460;2022-07-01T04:02:14;20.4125;;;16.137500000000003;;
14675;SDS011;7426;52.524;13.460;2022-07-01T04:04:14;24.175000000000004;;;17.325000000000003;;
14675;SDS011;7426;52.524;13.460;2022-07-01T04:06:14;25.675;;;17.3375;;
14675;SDS011;7426;52.524;13.460;2022-07-01T04:08:14;33.2875;;;18.3375;;
14675;SDS011;7426;52.524;13.460;2022-07-01T04:10:13;18.075;;;14.425;;
14675;SDS011;7426;52.524;13.460;2022-07-01T04:12:14;26.1625;;;17.475;;
14675;SDS011;7426;52.524;13.460;2022-07-01T04:14:14;21.6875;;;16.0;;
14675;SDS011;7426;52.524;13.460;2022-07-01T04:16:14;20.4;;;15.9375;;
14675;SDS011;7426;52.524;13.460;2022-07-01T04:18:14;23.4375;;;16.525;;
14675;SDS011;7426;52.524;13.460;2022-07-01T04:20:14;21.4625;;;16.2875;;
14675;SDS011;7426;52.524;13.460;2022-07-01T04:22:47;25.65;;;17.8;;
14675;SDS011;7426;52.524;13.460;2022-07-01T04:24:14;23.7875;;;18.275;;
14675;SDS011;7426;52.524;13.460;2022-07-01T04:26:16;23.475;;;17.25;;
14675;SDS011;7426;52.524;13.460;2022-07-01T04:28:14;26.5875;;;17.525;;
14675;SDS011;7426;52.524;13.460;2022-07-01T04:30:14;22.549999999999997;;;17.125;;
14675;SDS011;7426;52.524;13.460;2022-07-01T04:32:14;21.7;;;15.7;;
14675;SDS011;7426;52.524;13.460;2022-07-01T04:34:14;26.1125;;;17.2875;;
14675;SDS011;7426;52.524;13.460;2022-07-01T04:36:14;23.5125;;;16.525;;
14675;SDS011;7426;52.524;13.460;2022-07-01T04:38:14;26.1625;;;16.8125;;
14675;SDS011;7426;52.524;13.460;2022-07-01T04:40:14;24.0375;;;17.7625;;
14675;SDS011;7426;52.524;13.460;2022-07-01T04:42:15;27.175;;;21.5375;;
14675;SDS011;7426;52.524;13.460;2022-07-01T04:44:14;24.575;;;17.4875;;
14675;SDS011;7426;52.524;13.460;2022-07-01T04:46:14;26.237499999999997;;;16.7875;;
14675;SDS011;7426;52.524;13.460;2022-07-01T04:48:14;30.300000000000004;;;25.375;;
14675;SDS011;7426;52.524;13.460;2022-07-01T04:50:14;25.475;;;19.8125;;
14675;SDS011;7426;52.524;13.460;2022-07-01T04:52:14;30.424999999999997;;;23.049999999999997;;
14675;SDS011;7426;52.524;13.460;2022-07-01T04:54:14;29.3375;;;18.7125;;
14675;SDS011;7426;52.524;13.460;2022-07-01T04:56:14;37.1;;;23.3625;;
14675;SDS011;7426;52.524;13.460;2022-07-01T04:58:14;31.0;;;23.975;;
14675;SDS011;7426;52.524;13.460;2022-07-01T05:00:15;32.8125;;;28.412499999999998;;
14675;SDS011;7426;52.524;13.460;2022-07-01T05:02:14;30.287499999999998;;;25.275;;
14675;SDS011;7426;52.524;13.460;2022-07-01T05:04:15;34.337500000000006;;;26.7625;;
14675;SDS011;7426;52.524;13.460;2022-07-01T05:06:14;58.9875;;;54.075;;
14675;SDS011;7426;52.524;13.460;2022-07-01T05:08:14;49.625;;;44.35;;
14675;SDS011;7426;52.524;13.460;2022-07-01T05:10:14;56.1;;;51.375;;
14675;SDS011;7426;52.524;13.460;2022-07-01T05:12:15;63.162499999999994;;;57.125;;
14675;SDS011;7426;52.524;13.460;2022-07-01T05:14:15;62.900000000000006;;;57.28750000000001;;
14675;SDS011;7426;52.524;13.460;2022-07-01T05:16:14;117.7125;;;108.9625;;
14675;SDS011;7426;52.524;13.460;2022-07-01T05:22:14;415.7125;;;384.95;;
14675;SDS011;7426;52.524;13.460;2022-07-01T05:24:14;545.5;;;500.9125;;
14675;SDS011;7426;52.524;13.460;2022-07-01T05:26:17;1037.6125000000002;;;892.025;;
14675;SDS011;7426;52.524;13.460;2022-07-01T05:28:14;1794.7624999999998;;;982.1125;;
14675;SDS011;7426;52.524;13.460;2022-07-01T05:30:14;2200.0;;;999.9;;
14675;SDS011;7426;52.524;13.460;2022-07-01T05:32:15;2200.0;;;999.9;;
14675;SDS011;7426;52.524;13.460;2022-07-01T05:34:14;2200.0;;;822.05;;
14675;SDS011;7426;52.524;13.460;2022-07-01T05:36:14;1743.85;;;761.175;;
14675;SDS011;7426;52.524;13.460;2022-07-01T05:38:14;1779.6;;;825.8;;
14675;SDS011;7426;52.524;13.460;2022-07-01T05:40:14;1673.5625;;;859.25;;
14675;SDS011;7426;52.524;13.460;2022-07-01T05:42:14;1242.1;;;786.4375;;
14675;SDS011;7426;52.524;13.460;2022-07-01T05:44:14;1441.725;;;809.3375;;
14675;SDS011;7426;52.524;13.460;2022-07-01T05:46:14;1862.7875;;;766.725;;
14675;SDS011;7426;52.524;13.460;2022-07-01T05:48:14;2189.1;;;903.7625;;
14675;SDS011;7426;52.524;13.460;2022-07-01T05:50:15;2065.1125;;;855.7125;;
14675;SDS011;7426;52.524;13.460;2022-07-01T05:52:15;2120.1375;;;927.375;;
14675;SDS011;7426;52.524;13.460;2022-07-01T05:54:14;2021.15;;;743.3499999999999;;
14675;SDS011;7426;52.524;13.460;2022-07-01T05:56:14;1915.3125;;;582.0;;
14675;SDS011;7426;52.524;13.460;2022-07-01T05:58:15;2099.8125;;;792.0124999999999;;
14675;SDS011;7426;52.524;13.460;2022-07-01T06:00:14;2000.3;;;528.4749999999999;;
14675;SDS011;7426;52.524;13.460;2022-07-01T06:02:14;2085.825;;;563.3875;;
14675;SDS011;7426;52.524;13.460;2022-07-01T06:04:14;2028.55;;;727.225;;
14675;SDS011;7426;52.524;13.460;2022-07-01T06:06:14;2094.3;;;777.8499999999999;;
14675;SDS011;7426;52.524;13.460;2022-07-01T06:08:14;1961.0875;;;782.9124999999999;;
14675;SDS011;7426;52.524;13.460;2022-07-01T06:10:14;1967.1125;;;655.1875;;
14675;SDS011;7426;52.524;13.460;2022-07-01T06:12:14;1958.4;;;690.6125;;
14675;SDS011;7426;52.524;13.460;2022-07-01T06:14:14;1968.6875;;;655.925;;
14675;SDS011;7426;52.524;13.460;2022-07-01T06:16:14;1894.5625;;;621.7875;;
14675;SDS011;7426;52.524;13.460;2022-07-01T06:18:14;2022.2625;;;623.3625;;
14675;SDS011;7426;52.524;13.460;2022-07-01T06:20:14;2029.05;;;631.4875;;
14675;SDS011;7426;52.524;13.460;2022-07-01T06:22:16;2136.175;;;786.3125;;
14675;SDS011;7426;52.524;13.460;2022-07-01T06:24:14;1913.2625;;;796.375;;
14675;SDS011;7426;52.524;13.460;2022-07-01T06:26:14;1954.1125000000002;;;807.6125;;
14675;SDS011;7426;52.524;13.460;2022-07-01T06:28:14;2200.0;;;898.05;;
14675;SDS011;7426;52.524;13.460;2022-07-01T06:30:14;2053.725;;;918.1375;;
14675;SDS011;7426;52.524;13.460;2022-07-01T06:32:14;2174.55;;;892.0125;;
14675;SDS011;7426;52.524;13.460;2022-07-01T06:34:14;2032.6750000000002;;;914.4124999999999;;
14675;SDS011;7426;52.524;13.460;2022-07-01T06:36:14;1953.4625;;;887.4375;;
14675;SDS011;7426;52.524;13.460;2022-07-01T06:38:14;1999.6499999999999;;;897.2875;;
14675;SDS011;7426;52.524;13.460;2022-07-01T06:40:14;2200.0;;;901.7125;;
14675;SDS011;7426;52.524;13.460;2022-07-01T06:42:14;2184.8875;;;931.45;;
14675;SDS011;7426;52.524;13.460;2022-07-01T06:44:14;2065.5875;;;873.625;;
14675;SDS011;7426;52.524;13.460;2022-07-01T06:46:14;2092.6;;;877.0625;;
14675;SDS011;7426;52.524;13.460;2022-07-01T06:48:14;2064.9;;;877.7874999999999;;
14675;SDS011;7426;52.524;13.460;2022-07-01T06:50:14;2004.7;;;865.575;;
14675;SDS011;7426;52.524;13.460;2022-07-01T06:52:14;1961.7;;;843.5250000000001;;
14675;SDS011;7426;52.524;13.460;2022-07-01T06:54:16;1969.7875;;;858.7625;;
14675;SDS011;7426;52.524;13.460;2022-07-01T06:56:15;2028.625;;;839.675;;
14675;SDS011;7426;52.524;13.460;2022-07-01T06:58:14;1938.95;;;857.5374999999999;;
14675;SDS011;7426;52.524;13.460;2022-07-01T07:00:14;2055.675;;;856.6375;;
14675;SDS011;7426;52.524;13.460;2022-07-01T07:02:14;2009.4875;;;829.8875;;
14675;SDS011;7426;52.524;13.460;2022-07-01T07:04:14;1947.3625;;;819.8375000000001;;
14675;SDS011;7426;52.524;13.460;2022-07-01T07:06:14;1974.725;;;864.825;;
14675;SDS011;7426;52.524;13.460;2022-07-01T07:08:14;2005.0375000000001;;;862.0999999999999;;
14675;SDS011;7426;52.524;13.460;2022-07-01T07:10:14;2119.75;;;890.125;;
14675;SDS011;7426;52.524;13.460;2022-07-01T07:12:14;1833.8625000000002;;;846.225;;
14675;SDS011;7426;52.524;13.460;2022-07-01T07:14:14;1885.7749999999999;;;832.925;;
14675;SDS011;7426;52.524;13.460;2022-07-01T07:16:15;1920.25;;;832.2625;;
14675;SDS011;7426;52.524;13.460;2022-07-01T07:18:14;1974.35;;;903.125;;
14675;SDS011;7426;52.524;13.460;2022-07-01T07:20:14;2035.2;;;866.1375;;
14675;SDS011;7426;52.524;13.460;2022-07-01T07:22:14;2043.775;;;855.0625;;
14675;SDS011;7426;52.524;13.460;2022-07-01T07:24:14;1989.3;;;794.8875;;
14675;SDS011;7426;52.524;13.460;2022-07-01T07:26:14;1992.9625;;;804.625;;
14675;SDS011;7426;52.524;13.460;2022-07-01T07:28:14;1985.65;;;719.55;;
14675;SDS011;7426;52.524;13.460;2022-07-01T07:30:14;1951.625;;;849.7;;
14675;SDS011;7426;52.524;13.460;2022-07-01T07:32:14;1928.8375;;;499.725;;
14675;SDS011;7426;52.524;13.460;2022-07-01T07:34:14;1930.55;;;763.3875;;
14675;SDS011;7426;52.524;13.460;2022-07-01T07:36:14;1926.075;;;646.55;;
14675;SDS011;7426;52.524;13.460;2022-07-01T07:38:15;1931.3875;;;647.9625;;
14675;SDS011;7426;52.524;13.460;2022-07-01T07:40:18;1928.1125;;;655.525;;
14675;SDS011;7426;52.524;13.460;2022-07-01T07:42:14;1933.1125;;;698.125;;
14675;SDS011;7426;52.524;13.460;2022-07-01T07:44:14;1930.8875;;;713.4000000000001;;
14675;SDS011;7426;52.524;13.460;2022-07-01T07:46:14;1934.1375;;;732.55;;
14675;SDS011;7426;52.524;13.460;2022-07-01T07:48:14;1907.5375;;;734.6;;
14675;SDS011;7426;52.524;13.460;2022-07-01T07:50:14;1927.6875;;;718.8625;;
14675;SDS011;7426;52.524;13.460;2022-07-01T07:52:14;1807.925;;;815.1375;;
14675;SDS011;7426;52.524;13.460;2022-07-01T07:54:14;1729.0;;;786.7625;;
14675;SDS011;7426;52.524;13.460;2022-07-01T07:56:14;1763.875;;;802.3;;
14675;SDS011;7426;52.524;13.460;2022-07-01T07:58:14;1565.3625;;;749.7125;;
14675;SDS011;7426;52.524;13.460;2022-07-01T08:00:14;1534.05;;;687.5875;;
14675;SDS011;7426;52.524;13.460;2022-07-01T08:02:14;1457.8125;;;697.0999999999999;;
14675;SDS011;7426;52.524;13.460;2022-07-01T08:04:15;1536.825;;;727.7375;;
14675;SDS011;7426;52.524;13.460;2022-07-01T08:06:14;1509.975;;;718.95;;
14675;SDS011;7426;52.524;13.460;2022-07-01T08:08:14;1693.875;;;761.2125;;
14675;SDS011;7426;52.524;13.460;2022-07-01T08:10:14;1662.125;;;772.1125;;
14675;SDS011;7426;52.524;13.460;2022-07-01T08:12:14;1607.1375;;;748.4875;;
14675;SDS011;7426;52.524;13.460;2022-07-01T08:14:14;1345.35;;;665.85;;
14675;SDS011;7426;52.524;13.460;2022-07-01T08:16:15;1418.9250000000002;;;707.425;;
14675;SDS011;7426;52.524;13.460;2022-07-01T08:18:14;733.9749999999999;;;481.325;;
14675;SDS011;7426;52.524;13.460;2022-07-01T08:20:16;949.425;;;556.1125;;
14675;SDS011;7426;52.524;13.460;2022-07-01T08:22:14;794.3875;;;528.6625;;
14675;SDS011;7426;52.524;13.460;2022-07-01T08:24:14;507.75;;;457.6625;;
14675;SDS011;7426;52.524;13.460;2022-07-01T08:26:16;1400.2124999999999;;;652.05;;
14675;SDS011;7426;52.524;13.460;2022-07-01T08:28:14;500.18750000000006;;;445.3;;
14675;SDS011;7426;52.524;13.460;2022-07-01T08:30:14;843.3125;;;629.0875;;
14675;SDS011;7426;52.524;13.460;2022-07-01T08:32:14;265.9;;;242.8875;;
14675;SDS011;7426;52.524;13.460;2022-07-01T08:34:15;378.47499999999997;;;344.74999999999994;;
14675;SDS011;7426;52.524;13.460;2022-07-01T08:36:14;351.4;;;297.8;;
14675;SDS011;7426;52.524;13.460;2022-07-01T08:38:14;1340.8999999999999;;;687.9875;;
14675;SDS011;7426;52.524;13.460;2022-07-01T08:40:14;830.0999999999999;;;580.85;;
14675;SDS011;7426;52.524;13.460;2022-07-01T08:42:14;1031.1375;;;610.3375;;
14675;SDS011;7426;52.524;13.460;2022-07-01T08:44:14;626.2875;;;538.8625;;
14675;SDS011;7426;52.524;13.460;2022-07-01T08:46:14;1306.4624999999999;;;657.125;;
14675;SDS011;7426;52.524;13.460;2022-07-01T08:48:14;755.3875;;;563.225;;
14675;SDS011;7426;52.524;13.460;2022-07-01T08:50:14;805.15;;;506.625;;
14675;SDS011;7426;52.524;13.460;2022-07-01T08:52:14;536.0875;;;465.85;;
14675;SDS011;7426;52.524;13.460;2022-07-01T08:54:14;1279.9375;;;652.8000000000001;;
14675;SDS011;7426;52.524;13.460;2022-07-01T08:56:47;1133.5500000000002;;;596.95;;
14675;SDS011;7426;52.524;13.460;2022-07-01T08:58:14;348.42499999999995;;;319.4875;;
14675;SDS011;7426;52.524;13.460;2022-07-01T09:00:15;693.55;;;510.175;;
14675;SDS011;7426;52.524;13.460;2022-07-01T09:02:14;1021.3125;;;570.3000000000001;;
14675;SDS011;7426;52.524;13.460;2022-07-01T09:04:15;433.975;;;393.2625;;
14675;SDS011;7426;52.524;13.460;2022-07-01T09:06:15;474.05;;;429.94999999999993;;
14675;SDS011;7426;52.524;13.460;2022-07-01T09:08:15;376.3375;;;344.45;;
14675;SDS011;7426;52.524;13.460;2022-07-01T09:10:15;1413.9;;;641.4499999999999;;
14675;SDS011;7426;52.524;13.460;2022-07-01T09:12:14;1413.6875;;;716.2875;;
14675;SDS011;7426;52.524;13.460;2022-07-01T09:14:15;1422.525;;;724.8125;;
14675;SDS011;7426;52.524;13.460;2022-07-01T09:16:15;1354.8375;;;563.3375;;
14675;SDS011;7426;52.524;13.460;2022-07-01T09:18:15;1321.175;;;697.875;;
14675;SDS011;7426;52.524;13.460;2022-07-01T09:20:22;1301.4499999999998;;;679.3375;;
14675;SDS011;7426;52.524;13.460;2022-07-01T09:22:14;1357.0375;;;681.8625;;
14675;SDS011;7426;52.524;13.460;2022-07-01T09:24:22;560.9375;;;492.5125;;
14675;SDS011;7426;52.524;13.460;2022-07-01T09:26:18;1304.75;;;688.875;;
14675;SDS011;7426;52.524;13.460;2022-07-01T09:28:18;1020.075;;;668.0250000000001;;
14675;SDS011;7426;52.524;13.460;2022-07-01T09:30:14;531.85;;;474.3625;;
14675;SDS011;7426;52.524;13.460;2022-07-01T09:32:16;1391.0375;;;683.6;;
14675;SDS011;7426;52.524;13.460;2022-07-01T09:34:14;1167.425;;;509.96250000000003;;
14675;SDS011;7426;52.524;13.460;2022-07-01T09:36:14;2046.475;;;840.5625;;
14675;SDS011;7426;52.524;13.460;2022-07-01T09:38:15;1825.5375;;;890.9124999999999;;
14675;SDS011;7426;52.524;13.460;2022-07-01T09:40:14;1802.65;;;795.25;;
14675;SDS011;7426;52.524;13.460;2022-07-01T09:42:15;1822.7624999999998;;;804.8625;;
14675;SDS011;7426;52.524;13.460;2022-07-01T09:44:14;1848.625;;;732.6875;;
14675;SDS011;7426;52.524;13.460;2022-07-01T09:46:14;1516.9;;;618.0124999999999;;
14675;SDS011;7426;52.524;13.460;2022-07-01T09:48:14;1695.3375;;;777.2625;;
14675;SDS011;7426;52.524;13.460;2022-07-01T09:50:14;2051.5;;;646.4875;;
14675;SDS011;7426;52.524;13.460;2022-07-01T09:52:14;1565.4625;;;671.0625;;
14675;SDS011;7426;52.524;13.460;2022-07-01T09:54:14;1569.025;;;720.5875;;
14675;SDS011;7426;52.524;13.460;2022-07-01T09:56:14;2103.25;;;917.1500000000001;;
14675;SDS011;7426;52.524;13.460;2022-07-01T09:58:15;1225.775;;;543.3125;;
14675;SDS011;7426;52.524;13.460;2022-07-01T10:00:14;1177.0125;;;536.125;;
14675;SDS011;7426;52.524;13.460;2022-07-01T10:02:15;567.175;;;233.3375;;
14675;SDS011;7426;52.524;13.460;2022-07-01T10:04:14;1367.15;;;541.1625;;
14675;SDS011;7426;52.524;13.460;2022-07-01T10:06:19;1464.1750000000002;;;581.825;;
14675;SDS011;7426;52.524;13.460;2022-07-01T10:08:22;1239.4499999999998;;;485.59999999999997;;
14675;SDS011;7426;52.524;13.460;2022-07-01T10:10:18;1016.0125;;;419.4125;;
14675;SDS011;7426;52.524;13.460;2022-07-01T10:12:32;1151.725;;;529.1;;
14675;SDS011;7426;52.524;13.460;2022-07-01T10:14:14;1842.6;;;834.075;;
14675;SDS011;7426;52.524;13.460;2022-07-01T10:16:14;1108.5;;;485.55;;
14675;SDS011;7426;52.524;13.460;2022-07-01T10:18:22;1240.4875;;;429.38750000000005;;
14675;SDS011;7426;52.524;13.460;2022-07-01T10:20:15;1018.4625000000001;;;441.3125;;
14675;SDS011;7426;52.524;13.460;2022-07-01T10:22:29;1175.7625;;;521.5125;;
14675;SDS011;7426;52.524;13.460;2022-07-01T10:24:15;977.1875;;;405.92499999999995;;
14675;SDS011;7426;52.524;13.460;2022-07-01T10:26:14;1152.7375;;;506.5625;;
14675;SDS011;7426;52.524;13.460;2022-07-01T10:28:20;1040.9625;;;456.26250000000005;;
14675;SDS011;7426;52.524;13.460;2022-07-01T10:30:14;1042.7;;;439.4375;;
14675;SDS011;7426;52.524;13.460;2022-07-01T10:32:26;1013.8;;;452.9375;;
14675;SDS011;7426;52.524;13.460;2022-07-01T10:34:14;1014.7875;;;444.375;;